Aviation Digital Data Service (ADDS)

Output produced by TAFs form (1444 UTC 23 January 2017)
found at http://aviationweather.gov/adds/tafs/
 
KELP 231138Z 2312/2412 21008KT P6SM FEW250 
     FM231800 24017G27KT P6SM FEW140 SCT250 
     FM240500 26018G30KT P6SM VCSH SCT110 BKN200 
     TEMPO 2406/2410 27025G38KT